createdAt,value
2023-02-01T00:01:09.544Z,5.10
2023-02-01T00:03:38.493Z,3.22
2023-02-01T00:06:05.326Z,6.85
2023-02-01T00:08:31.866Z,4.38
2023-02-01T00:11:00.225Z,3.55
2023-02-01T00:13:29.564Z,3.60
2023-02-01T00:15:56.625Z,7.53
2023-02-01T00:18:23.245Z,9.10
2023-02-01T00:20:49.741Z,7.07
2023-02-01T00:23:16.493Z,5.55
2023-02-01T00:25:42.913Z,3.45
2023-02-01T00:28:13.874Z,4.22
2023-02-01T00:30:42.914Z,3.78
2023-02-01T00:33:09.453Z,7.13
2023-02-01T00:35:36.502Z,4.22
2023-02-01T00:38:03.135Z,3.63
2023-02-01T00:40:29.592Z,9.90
2023-02-01T00:42:56.145Z,5.97
2023-02-01T00:45:24.719Z,4.30
2023-02-01T00:47:51.201Z,3.97
2023-02-01T00:50:20.713Z,4.93
2023-02-01T00:52:47.480Z,4.05
2023-02-01T00:55:13.980Z,6.00
2023-02-01T00:57:40.414Z,4.35
2023-02-01T01:00:07.536Z,6.53
2023-02-01T01:02:36.327Z,3.60
2023-02-01T01:05:02.903Z,4.15
2023-02-01T01:07:29.424Z,5.15
2023-02-01T01:09:56.177Z,4.25
2023-02-01T01:12:22.807Z,6.40
2023-02-01T01:14:49.247Z,3.28
2023-02-01T01:17:15.695Z,3.03
2023-02-01T01:19:44.780Z,7.10
2023-02-01T01:22:11.180Z,7.47
2023-02-01T01:24:37.627Z,4.97
2023-02-01T01:27:04.124Z,4.72
2023-02-01T01:29:33.921Z,5.68
2023-02-01T01:32:00.455Z,6.43
2023-02-01T01:34:27.064Z,2.45
2023-02-01T01:36:53.437Z,5.82
2023-02-01T01:39:19.853Z,4.63
2023-02-01T01:41:51.106Z,7.53
2023-02-01T01:44:59.140Z,5.07
2023-02-01T01:47:30.810Z,5.25
2023-02-01T01:49:57.561Z,5.90
2023-02-01T01:52:24.772Z,2.67
2023-02-01T01:54:54.110Z,4.20
2023-02-01T01:57:42.553Z,4.82
2023-02-01T02:00:13.041Z,4.15
2023-02-01T02:02:45.982Z,7.50
2023-02-01T02:05:14.131Z,3.75
2023-02-01T02:07:44.929Z,3.63
2023-02-01T02:10:13.397Z,3.88
2023-02-01T02:12:42.312Z,8.55
2023-02-01T02:15:11.528Z,4.25
2023-02-01T02:17:57.221Z,4.50
2023-02-01T02:20:49.767Z,13.18
2023-02-01T02:23:39.586Z,3.80
2023-02-01T02:26:35.639Z,5.80
2023-02-01T02:29:07.907Z,3.85
2023-02-01T02:31:34.450Z,3.80
2023-02-01T02:34:16.188Z,8.43
2023-02-01T02:37:21.953Z,4.27
2023-02-01T02:40:07.577Z,6.57
2023-02-01T02:42:58.833Z,5.53
2023-02-01T02:45:55.368Z,8.23
2023-02-01T02:48:43.375Z,7.13
2023-02-01T02:51:35.021Z,7.90
2023-02-01T02:54:34.816Z,3.50
2023-02-01T02:57:21.963Z,3.90
2023-02-01T03:00:07.530Z,7.35
2023-02-01T03:02:54.131Z,8.55
2023-02-01T03:05:21.703Z,4.78
2023-02-01T03:08:03.463Z,8.43
2023-02-01T03:10:42.926Z,6.77
2023-02-01T03:13:14.487Z,6.88
2023-02-01T03:15:57.157Z,5.30
2023-02-01T03:18:34.309Z,9.57
2023-02-01T03:21:06.776Z,5.53
2023-02-01T03:26:03.461Z,4.57
2023-02-01T03:28:34.695Z,4.07
2023-02-01T03:31:02.304Z,5.18
2023-02-01T03:33:31.173Z,6.60
2023-02-01T03:36:11.218Z,4.88
2023-02-01T03:38:53.123Z,7.53
2023-02-01T03:41:37.313Z,12.82
2023-02-01T03:44:41.235Z,5.28
2023-02-01T03:47:26.877Z,7.47
2023-02-01T03:50:00.673Z,6.55
2023-02-01T03:52:50.182Z,5.00
2023-02-01T03:55:21.296Z,7.72
2023-02-01T03:57:56.109Z,3.88
2023-02-01T04:00:27.003Z,5.20
2023-02-01T04:02:53.852Z,4.70
2023-02-01T04:05:21.233Z,6.00
2023-02-01T04:07:47.661Z,10.35
2023-02-01T04:10:14.548Z,6.72
2023-02-01T04:12:43.318Z,5.47
2023-02-01T04:15:10.210Z,12.57
2023-02-01T04:20:03.034Z,7.07
2023-02-01T04:22:31.719Z,9.63
2023-02-01T04:25:00.804Z,9.23
2023-02-01T04:27:29.799Z,9.07
2023-02-01T04:29:58.434Z,6.90
2023-02-01T04:32:25.136Z,7.53
2023-02-01T04:34:51.849Z,12.98
2023-02-01T04:37:18.207Z,8.13
2023-02-01T04:39:44.633Z,8.98
2023-02-01T04:42:13.909Z,4.90
2023-02-01T04:44:42.745Z,8.40
2023-02-01T04:47:10.448Z,10.23
2023-02-01T04:49:37.028Z,10.55
2023-02-01T04:52:03.936Z,5.82
2023-02-01T04:54:30.430Z,13.43
2023-02-01T04:56:59.514Z,7.22
2023-02-01T04:59:27.231Z,9.85
2023-02-01T05:01:58.229Z,6.85
2023-02-01T05:04:32.182Z,6.97
2023-02-01T05:06:58.656Z,5.68
2023-02-01T05:09:25.072Z,9.25
2023-02-01T05:12:10.267Z,4.30
2023-02-01T05:14:36.745Z,6.57
2023-02-01T05:17:03.306Z,6.15
2023-02-01T05:19:29.717Z,7.82
2023-02-01T05:21:56.145Z,5.97
2023-02-01T05:24:28.097Z,11.00
2023-02-01T05:26:54.817Z,10.43
2023-02-01T05:29:23.700Z,6.93
2023-02-01T05:31:50.242Z,5.55
2023-02-01T05:34:19.358Z,5.05
2023-02-01T05:36:47.961Z,5.57
2023-02-01T05:39:14.436Z,4.60
2023-02-01T05:41:43.383Z,3.55
2023-02-01T05:44:12.723Z,6.97
2023-02-01T05:46:39.270Z,8.27
2023-02-01T05:49:06.397Z,6.97
2023-02-01T05:51:35.628Z,13.00
2023-02-01T05:54:04.325Z,4.28
2023-02-01T05:56:31.033Z,3.28
2023-02-01T05:58:57.598Z,7.97
2023-02-01T06:01:24.067Z,5.88
2023-02-01T06:03:50.518Z,6.75
2023-02-01T06:06:19.829Z,9.10
2023-02-01T06:08:46.636Z,5.05
2023-02-01T06:11:30.628Z,4.30
2023-02-01T06:14:01.211Z,5.43
2023-02-01T06:16:28.174Z,7.30
2023-02-01T06:18:54.949Z,6.80
2023-02-01T06:21:30.312Z,6.22
2023-02-01T06:23:58.479Z,8.90
2023-02-01T06:26:25.106Z,4.22
2023-02-01T06:28:51.694Z,7.70
2023-02-01T06:31:20.305Z,13.38
2023-02-01T06:33:47.968Z,8.13
2023-02-01T06:36:16.333Z,5.22
2023-02-01T06:38:42.904Z,6.60
2023-02-01T06:41:09.832Z,7.32
2023-02-01T06:43:36.443Z,6.45
2023-02-01T06:46:05.440Z,9.18
2023-02-01T06:48:32.190Z,9.77
2023-02-01T06:50:58.915Z,7.28
2023-02-01T06:53:27.665Z,6.10
2023-02-01T06:56:02.896Z,6.32
2023-02-01T06:58:33.269Z,5.45
2023-02-01T07:01:08.539Z,11.30
2023-02-01T07:03:35.380Z,9.20
2023-02-01T07:06:05.327Z,5.90
2023-02-01T07:08:36.283Z,6.85
2023-02-01T07:11:05.469Z,8.75
2023-02-01T07:13:32.154Z,7.05
2023-02-01T07:16:02.812Z,5.20
2023-02-01T07:18:32.336Z,5.03
2023-02-01T07:20:58.969Z,8.55
2023-02-01T07:23:28.216Z,9.10
2023-02-01T07:25:59.805Z,7.25
2023-02-01T07:28:31.757Z,9.53
2023-02-01T07:31:09.748Z,9.00
2023-02-01T07:33:38.607Z,15.35
2023-02-01T07:36:07.000Z,8.85
2023-02-01T07:38:33.998Z,8.02
2023-02-01T07:41:04.549Z,8.02
2023-02-01T07:43:31.187Z,15.65
2023-02-01T07:45:58.167Z,6.03
2023-02-01T07:48:25.699Z,5.43
2023-02-01T07:51:06.572Z,6.82
2023-02-01T07:53:35.061Z,10.73
2023-02-01T07:56:02.190Z,4.65
2023-02-01T07:58:29.163Z,18.10
2023-02-01T08:01:14.962Z,15.20
2023-02-01T08:03:41.610Z,7.13
2023-02-01T08:06:08.510Z,12.02
2023-02-01T08:08:35.116Z,15.68
2023-02-01T08:11:05.192Z,10.27
2023-02-01T08:13:34.689Z,8.43
2023-02-01T08:16:03.683Z,12.00
2023-02-01T08:18:30.704Z,9.35
2023-02-01T08:20:57.568Z,14.20
2023-02-01T08:23:25.201Z,17.10
2023-02-01T08:25:51.865Z,10.88
2023-02-01T08:28:18.295Z,12.35
2023-02-01T08:30:44.782Z,18.70
2023-02-01T08:33:11.934Z,14.20
2023-02-01T08:35:43.685Z,8.10
2023-02-01T08:38:13.526Z,18.63
2023-02-01T08:40:42.284Z,14.63
2023-02-01T08:43:08.738Z,22.42
2023-02-01T08:45:40.713Z,18.00
2023-02-01T08:48:09.582Z,20.60
2023-02-01T08:50:36.129Z,15.73
2023-02-01T08:53:02.612Z,6.93
2023-02-01T08:55:29.392Z,11.73
2023-02-01T08:57:57.117Z,9.23
2023-02-01T09:00:26.098Z,11.02
2023-02-01T09:02:52.654Z,11.43
2023-02-01T09:05:23.028Z,16.98
2023-02-01T09:07:49.947Z,6.18
2023-02-01T09:10:18.893Z,11.02
2023-02-01T09:12:47.511Z,12.55
2023-02-01T09:15:14.097Z,20.75
2023-02-01T09:17:42.619Z,17.45
2023-02-01T09:20:10.301Z,17.60
2023-02-01T09:22:36.946Z,19.92
2023-02-01T09:25:03.750Z,8.48
2023-02-01T09:27:30.299Z,16.13
2023-02-01T09:29:59.177Z,19.27
2023-02-01T09:32:26.046Z,14.93
2023-02-01T09:34:53.563Z,12.68
2023-02-01T09:37:20.704Z,11.25
2023-02-01T09:39:47.200Z,15.30
2023-02-01T09:42:20.602Z,11.02
2023-02-01T09:45:19.033Z,19.17
2023-02-01T09:47:59.059Z,22.63
2023-02-01T09:50:38.471Z,13.82
2023-02-01T09:53:11.683Z,15.60
2023-02-01T09:55:47.960Z,17.95
2023-02-01T09:58:26.605Z,10.43
2023-02-01T10:00:56.551Z,19.10
2023-02-01T10:03:28.084Z,12.38
2023-02-01T10:06:31.272Z,14.07
2023-02-01T10:09:13.344Z,10.43
2023-02-01T10:11:51.931Z,8.80
2023-02-01T10:14:44.709Z,17.58
2023-02-01T10:17:30.391Z,8.05
2023-02-01T10:20:12.099Z,18.52
2023-02-01T10:23:13.755Z,8.03
2023-02-01T10:25:54.794Z,7.72
2023-02-01T10:28:26.925Z,8.48
2023-02-01T10:30:59.812Z,9.38
2023-02-01T10:33:33.209Z,18.35
2023-02-01T10:36:11.974Z,21.10
2023-02-01T10:38:39.920Z,9.93
2023-02-01T10:41:18.617Z,8.18
2023-02-01T10:43:49.143Z,19.63
2023-02-01T10:46:15.662Z,9.27
2023-02-01T10:48:42.722Z,20.70
2023-02-01T10:51:51.366Z,14.60
2023-02-01T10:54:23.304Z,11.50
2023-02-01T10:56:54.389Z,16.38
2023-02-01T10:59:25.167Z,10.63
2023-02-01T11:02:00.915Z,11.10
2023-02-01T11:04:32.456Z,8.85
2023-02-01T11:07:08.645Z,16.37
2023-02-01T11:09:40.862Z,17.38
2023-02-01T11:12:25.738Z,14.70
2023-02-01T11:14:59.553Z,12.95
2023-02-01T11:17:33.418Z,27.83
2023-02-01T11:20:15.281Z,17.75
2023-02-01T11:22:54.323Z,18.98
2023-02-01T11:25:22.972Z,20.95
2023-02-01T11:27:55.369Z,32.10
2023-02-01T11:30:36.051Z,17.70
2023-02-01T11:33:06.808Z,16.13
2023-02-01T11:35:41.123Z,8.63
2023-02-01T11:38:22.142Z,22.80
2023-02-01T11:40:48.878Z,27.13
2023-02-01T11:43:26.104Z,21.35
2023-02-01T11:46:01.460Z,18.50
2023-02-01T11:48:33.588Z,15.90
2023-02-01T11:51:24.143Z,12.90
2023-02-01T11:53:59.731Z,18.73
2023-02-01T11:56:52.377Z,34.47
2023-02-01T11:59:48.630Z,9.88
2023-02-01T12:02:40.066Z,6.95
2023-02-01T12:05:55.094Z,15.85
2023-02-01T12:08:30.510Z,20.42
2023-02-01T12:11:33.556Z,15.38
2023-02-01T12:14:28.131Z,21.80
2023-02-01T12:17:02.083Z,5.50
2023-02-01T12:19:43.400Z,20.30
2023-02-01T12:22:19.896Z,13.40
2023-02-01T12:25:06.797Z,7.93
2023-02-01T12:27:35.985Z,9.88
2023-02-01T12:30:14.074Z,10.98
2023-02-01T12:32:59.580Z,13.98
2023-02-01T12:35:49.182Z,23.15
2023-02-01T12:38:31.941Z,14.65
2023-02-01T12:41:04.380Z,26.42
2023-02-01T12:46:14.401Z,16.90
2023-02-01T12:49:02.044Z,11.73
2023-02-01T12:51:37.779Z,13.88
2023-02-01T12:54:20.703Z,15.68
2023-02-01T12:57:02.759Z,18.23
2023-02-01T13:00:02.212Z,20.90
2023-02-01T13:03:00.039Z,21.25
2023-02-01T13:05:36.131Z,11.20
2023-02-01T13:08:17.227Z,20.75
2023-02-01T13:10:46.239Z,16.55
2023-02-01T13:13:24.053Z,14.75
2023-02-01T13:16:02.925Z,17.50
2023-02-01T13:18:37.309Z,12.25
2023-02-01T13:21:09.643Z,15.95
2023-02-01T13:26:04.949Z,21.52
2023-02-01T13:28:46.958Z,9.35
2023-02-01T13:31:45.931Z,11.63
2023-02-01T13:34:39.717Z,16.27
2023-02-01T13:37:34.332Z,8.18
2023-02-01T13:40:54.318Z,14.65
2023-02-01T13:43:31.727Z,14.52
2023-02-01T13:46:06.911Z,17.33
2023-02-01T13:48:52.032Z,15.43
2023-02-01T13:51:49.380Z,23.92
2023-02-01T13:54:30.251Z,15.50
2023-02-01T13:57:01.843Z,16.00
2023-02-01T13:59:53.325Z,11.07
2023-02-01T14:02:44.077Z,6.80
2023-02-01T14:05:41.106Z,8.23
2023-02-01T14:08:07.514Z,13.15
2023-02-01T14:11:00.787Z,6.57
2023-02-01T14:13:36.663Z,14.38
2023-02-01T14:16:06.766Z,7.88
2023-02-01T14:18:39.006Z,7.57
2023-02-01T14:21:34.348Z,23.33
2023-02-01T14:24:03.563Z,14.15
2023-02-01T14:26:36.374Z,15.65
2023-02-01T14:29:20.294Z,11.98
2023-02-01T14:32:03.472Z,20.02
2023-02-01T14:37:11.663Z,13.23
2023-02-01T14:39:47.259Z,18.73
2023-02-01T14:42:53.383Z,12.55
2023-02-01T14:45:20.151Z,7.70
2023-02-01T14:47:53.152Z,14.88
2023-02-01T14:50:24.260Z,14.43
2023-02-01T14:53:14.500Z,15.90
2023-02-01T14:55:43.768Z,16.17
2023-02-01T14:58:40.949Z,22.10
2023-02-01T15:01:19.215Z,17.63
2023-02-01T15:03:57.406Z,13.98
2023-02-01T15:06:48.491Z,16.90
2023-02-01T15:09:26.564Z,9.25
2023-02-01T15:12:11.390Z,8.23
2023-02-01T15:14:43.778Z,9.75
2023-02-01T15:19:58.450Z,10.73
2023-02-01T15:22:25.585Z,14.77
2023-02-01T15:24:57.776Z,19.55
2023-02-01T15:27:25.476Z,10.52
2023-02-01T15:29:52.135Z,18.55
2023-02-01T15:32:32.291Z,12.25
2023-02-01T15:35:01.307Z,17.85
2023-02-01T15:37:32.080Z,15.02
2023-02-01T15:40:10.686Z,11.73
2023-02-01T15:43:00.458Z,5.78
2023-02-01T15:45:30.749Z,9.88
2023-02-01T15:47:59.312Z,12.18
2023-02-01T15:50:27.209Z,15.85
2023-02-01T15:52:56.579Z,6.93
2023-02-01T15:55:25.607Z,19.42
2023-02-01T15:57:53.037Z,9.02
2023-02-01T16:00:24.733Z,15.02
2023-02-01T16:02:59.978Z,8.02
2023-02-01T16:05:39.872Z,17.60
2023-02-01T16:08:12.765Z,12.25
2023-02-01T16:10:45.513Z,9.20
2023-02-01T16:13:12.747Z,12.65
2023-02-01T16:15:39.655Z,16.38
2023-02-01T16:18:09.078Z,10.82
2023-02-01T16:20:36.780Z,14.05
2023-02-01T16:23:09.759Z,15.00
2023-02-01T16:25:37.743Z,14.25
2023-02-01T16:28:06.844Z,12.13
2023-02-01T16:30:36.413Z,27.40
2023-02-01T16:33:06.415Z,19.65
2023-02-01T16:35:37.691Z,22.00
2023-02-01T16:38:14.290Z,18.73
2023-02-01T16:40:44.272Z,22.58
2023-02-01T16:43:18.321Z,19.55
2023-02-01T16:45:49.930Z,15.10
2023-02-01T16:48:23.243Z,17.23
2023-02-01T16:50:56.460Z,12.75
2023-02-01T16:53:24.559Z,21.70
2023-02-01T16:55:53.103Z,15.30
2023-02-01T16:58:20.855Z,12.93
2023-02-01T17:00:48.512Z,15.57
2023-02-01T17:03:17.507Z,22.10
2023-02-01T17:05:49.675Z,21.00
2023-02-01T17:08:25.556Z,27.80
2023-02-01T17:10:59.901Z,21.48
2023-02-01T17:13:29.378Z,17.80
2023-02-01T17:15:58.148Z,14.90
2023-02-01T17:18:26.247Z,19.50
2023-02-01T17:20:53.150Z,20.00
2023-02-01T17:23:20.797Z,15.55
2023-02-01T17:25:48.930Z,13.20
2023-02-01T17:28:15.840Z,10.93
2023-02-01T17:30:45.532Z,9.85
2023-02-01T17:33:22.675Z,36.83
2023-02-01T17:35:49.508Z,66.47
2023-02-01T17:38:16.514Z,101.10
2023-02-01T17:40:45.302Z,93.30
2023-02-01T17:43:16.763Z,41.05
2023-02-01T17:45:51.731Z,33.50
2023-02-01T17:48:23.133Z,22.23
2023-02-01T17:50:54.729Z,17.55
2023-02-01T17:53:24.770Z,12.93
2023-02-01T17:55:52.627Z,17.77
2023-02-01T17:58:24.631Z,22.98
2023-02-01T18:00:53.676Z,9.90
2023-02-01T18:03:30.397Z,22.50
2023-02-01T18:05:58.418Z,14.38
2023-02-01T18:08:31.004Z,21.95
2023-02-01T18:11:00.960Z,19.98
2023-02-01T18:13:33.650Z,16.98
2023-02-01T18:16:02.200Z,16.52
2023-02-01T18:18:30.849Z,17.20
2023-02-01T18:20:57.318Z,25.77
2023-02-01T18:23:24.514Z,18.98
2023-02-01T18:25:53.309Z,15.55
2023-02-01T18:28:26.362Z,35.97
2023-02-01T18:30:55.735Z,41.95
2023-02-01T18:33:22.941Z,27.13
2023-02-01T18:35:49.642Z,13.07
2023-02-01T18:38:24.960Z,19.85
2023-02-01T18:40:53.572Z,16.20
2023-02-01T18:43:20.792Z,13.70
2023-02-01T18:45:48.462Z,11.57
2023-02-01T18:48:17.492Z,18.92
2023-02-01T18:50:45.918Z,21.63
2023-02-01T18:53:20.826Z,30.83
2023-02-01T18:55:48.129Z,18.92
2023-02-01T18:58:18.474Z,10.55
2023-02-01T19:00:46.108Z,14.00
2023-02-01T19:03:14.780Z,18.35
2023-02-01T19:05:41.807Z,15.35
2023-02-01T19:08:09.129Z,14.25
2023-02-01T19:10:38.713Z,20.88
2023-02-01T19:13:05.329Z,14.05
2023-02-01T19:15:33.722Z,13.90
2023-02-01T19:18:00.316Z,7.25
2023-02-01T19:20:27.530Z,27.13
2023-02-01T19:22:56.648Z,18.00
2023-02-01T19:25:26.370Z,14.30
2023-02-01T19:27:56.283Z,10.18
2023-02-01T19:30:23.496Z,13.38
2023-02-01T19:32:51.708Z,25.83
2023-02-01T19:35:20.360Z,13.40
2023-02-01T19:37:48.271Z,13.27
2023-02-01T19:40:19.320Z,19.77
2023-02-01T19:42:47.326Z,11.07
2023-02-01T19:45:14.300Z,15.43
2023-02-01T19:47:41.035Z,22.20
2023-02-01T19:50:10.373Z,29.08
2023-02-01T19:52:37.122Z,10.50
2023-02-01T19:55:04.958Z,12.95
2023-02-01T19:57:31.738Z,12.55
2023-02-01T19:59:58.358Z,6.78
2023-02-01T20:02:25.604Z,16.27
2023-02-01T20:04:52.031Z,15.02
2023-02-01T20:07:18.554Z,14.25
2023-02-01T20:09:47.104Z,10.20
2023-02-01T20:12:13.587Z,10.85
2023-02-01T20:14:40.407Z,22.95
2023-02-01T20:17:08.489Z,9.93
2023-02-01T20:19:34.870Z,12.57
2023-02-01T20:22:03.855Z,14.32
2023-02-01T20:24:30.294Z,23.23
2023-02-01T20:26:57.842Z,16.45
2023-02-01T20:29:24.305Z,9.50
2023-02-01T20:31:50.783Z,7.93
2023-02-01T20:34:20.491Z,18.65
2023-02-01T20:36:46.978Z,10.18
2023-02-01T20:39:13.479Z,15.40
2023-02-01T20:41:43.734Z,16.50
2023-02-01T20:44:10.349Z,13.27
2023-02-01T20:46:36.820Z,9.90
2023-02-01T20:49:03.221Z,13.73
2023-02-01T20:51:32.914Z,16.25
2023-02-01T20:53:59.557Z,10.63
2023-02-01T20:56:25.940Z,6.32
2023-02-01T20:58:52.456Z,19.67
2023-02-01T21:01:21.932Z,18.27
2023-02-01T21:03:48.378Z,14.40
2023-02-01T21:06:14.913Z,10.15
2023-02-01T21:08:41.504Z,10.88
2023-02-01T21:11:13.698Z,7.43
2023-02-01T21:13:50.359Z,18.45
2023-02-01T21:16:19.781Z,13.85
2023-02-01T21:18:51.542Z,15.48
2023-02-01T21:21:18.183Z,11.68
2023-02-01T21:23:45.313Z,8.90
2023-02-01T21:26:22.135Z,21.33
2023-02-01T21:28:49.423Z,12.20
2023-02-01T21:31:17.144Z,17.67
2023-02-01T21:33:46.803Z,24.35
2023-02-01T21:36:18.769Z,13.13
2023-02-01T21:38:47.649Z,15.07
2023-02-01T21:41:32.517Z,14.23
2023-02-01T21:43:58.923Z,12.93
2023-02-01T21:46:25.422Z,16.52
2023-02-01T21:49:04.206Z,10.38
2023-02-01T21:51:32.381Z,18.10
2023-02-01T21:53:58.758Z,22.17
2023-02-01T21:56:25.276Z,22.40
2023-02-01T21:58:54.188Z,23.58
2023-02-01T22:01:20.882Z,20.63
2023-02-01T22:03:47.390Z,21.40
2023-02-01T22:06:30.795Z,18.23
2023-02-01T22:08:58.005Z,27.98
2023-02-01T22:11:27.056Z,20.67
2023-02-01T22:13:53.921Z,22.45
2023-02-01T22:16:21.552Z,16.10
2023-02-01T22:18:49.841Z,14.32
2023-02-01T22:21:19.827Z,15.90
2023-02-01T22:23:55.067Z,15.63
2023-02-01T22:26:25.890Z,13.15
2023-02-01T22:28:55.707Z,18.45
2023-02-01T22:31:22.578Z,16.77
2023-02-01T22:33:50.285Z,15.77
2023-02-01T22:36:19.769Z,30.08
2023-02-01T22:38:48.356Z,14.73
2023-02-01T22:41:18.459Z,12.93
2023-02-01T22:43:47.554Z,17.52
2023-02-01T22:46:28.194Z,17.80
2023-02-01T22:48:54.743Z,27.17
2023-02-01T22:51:24.452Z,11.55
2023-02-01T22:54:00.308Z,11.75
2023-02-01T22:56:37.485Z,13.75
2023-02-01T22:59:16.170Z,10.95
2023-02-01T23:01:43.216Z,11.13
2023-02-01T23:04:12.763Z,14.57
2023-02-01T23:06:43.150Z,15.45
2023-02-01T23:09:17.100Z,20.33
2023-02-01T23:11:44.424Z,13.82
2023-02-01T23:14:12.587Z,14.00
2023-02-01T23:16:44.434Z,15.45
2023-02-01T23:19:23.011Z,11.55
2023-02-01T23:21:49.811Z,13.73
2023-02-01T23:24:18.989Z,15.80
2023-02-01T23:26:45.599Z,19.45
2023-02-01T23:29:19.214Z,16.42
2023-02-01T23:32:03.328Z,22.52
2023-02-01T23:34:37.001Z,11.52
2023-02-01T23:37:03.739Z,11.95
2023-02-01T23:39:33.669Z,11.43
2023-02-01T23:44:54.275Z,6.53
2023-02-01T23:47:21.051Z,18.63
2023-02-01T23:49:47.484Z,13.15
2023-02-01T23:52:17.171Z,13.02
2023-02-01T23:54:43.739Z,15.73
2023-02-01T23:57:13.414Z,22.00
2023-02-01T23:59:40.933Z,11.70
